sensor_id;sensor_type;location;lat;lon;timestamp;P1;durP1;ratioP1;P2;durP2;ratioP2
21237;SDS011;10777;50.828;3.264;2022-11-20T00:02:15;104.37;;;38.57;;
21237;SDS011;10777;50.828;3.264;2022-11-20T00:04:40;101.10;;;36.80;;
21237;SDS011;10777;50.828;3.264;2022-11-20T00:07:06;88.67;;;36.37;;
21237;SDS011;10777;50.828;3.264;2022-11-20T00:09:32;97.33;;;37.20;;
21237;SDS011;10777;50.828;3.264;2022-11-20T00:11:57;100.27;;;38.13;;
21237;SDS011;10777;50.828;3.264;2022-11-20T00:14:23;93.80;;;35.37;;
21237;SDS011;10777;50.828;3.264;2022-11-20T00:16:48;97.40;;;36.10;;
21237;SDS011;10777;50.828;3.264;2022-11-20T00:19:14;97.40;;;36.33;;
21237;SDS011;10777;50.828;3.264;2022-11-20T00:21:40;97.50;;;36.70;;
21237;SDS011;10777;50.828;3.264;2022-11-20T00:24:08;102.87;;;37.00;;
21237;SDS011;10777;50.828;3.264;2022-11-20T00:26:35;107.07;;;39.73;;
21237;SDS011;10777;50.828;3.264;2022-11-20T00:29:00;99.70;;;36.93;;
21237;SDS011;10777;50.828;3.264;2022-11-20T00:31:27;98.10;;;37.60;;
21237;SDS011;10777;50.828;3.264;2022-11-20T00:33:54;89.73;;;35.47;;
21237;SDS011;10777;50.828;3.264;2022-11-20T00:36:22;92.93;;;36.90;;
21237;SDS011;10777;50.828;3.264;2022-11-20T00:38:51;97.67;;;36.00;;
21237;SDS011;10777;50.828;3.264;2022-11-20T00:41:18;100.80;;;37.20;;
21237;SDS011;10777;50.828;3.264;2022-11-20T00:43:44;104.27;;;40.23;;
21237;SDS011;10777;50.828;3.264;2022-11-20T00:46:12;98.50;;;37.23;;
21237;SDS011;10777;50.828;3.264;2022-11-20T00:48:39;112.10;;;39.23;;
21237;SDS011;10777;50.828;3.264;2022-11-20T00:51:06;106.30;;;37.03;;
21237;SDS011;10777;50.828;3.264;2022-11-20T00:53:31;101.50;;;37.90;;
21237;SDS011;10777;50.828;3.264;2022-11-20T00:55:59;109.00;;;37.83;;
21237;SDS011;10777;50.828;3.264;2022-11-20T00:58:30;104.27;;;39.20;;
21237;SDS011;10777;50.828;3.264;2022-11-20T01:01:01;104.83;;;37.83;;
21237;SDS011;10777;50.828;3.264;2022-11-20T01:03:37;150.17;;;58.10;;
21237;SDS011;10777;50.828;3.264;2022-11-20T01:06:06;104.50;;;38.43;;
21237;SDS011;10777;50.828;3.264;2022-11-20T01:08:35;105.40;;;36.13;;
21237;SDS011;10777;50.828;3.264;2022-11-20T01:11:02;107.23;;;36.00;;
21237;SDS011;10777;50.828;3.264;2022-11-20T01:13:30;100.60;;;36.00;;
21237;SDS011;10777;50.828;3.264;2022-11-20T01:16:05;104.33;;;36.93;;
21237;SDS011;10777;50.828;3.264;2022-11-20T01:18:33;93.17;;;34.07;;
21237;SDS011;10777;50.828;3.264;2022-11-20T01:21:00;87.90;;;35.00;;
21237;SDS011;10777;50.828;3.264;2022-11-20T01:23:29;89.37;;;34.03;;
21237;SDS011;10777;50.828;3.264;2022-11-20T01:25:56;90.23;;;34.27;;
21237;SDS011;10777;50.828;3.264;2022-11-20T01:28:21;85.20;;;34.00;;
21237;SDS011;10777;50.828;3.264;2022-11-20T01:30:47;91.80;;;32.93;;
21237;SDS011;10777;50.828;3.264;2022-11-20T01:33:13;100.13;;;35.53;;
21237;SDS011;10777;50.828;3.264;2022-11-20T01:35:38;89.73;;;33.63;;
21237;SDS011;10777;50.828;3.264;2022-11-20T01:38:04;94.50;;;34.23;;
21237;SDS011;10777;50.828;3.264;2022-11-20T01:40:29;96.87;;;34.03;;
21237;SDS011;10777;50.828;3.264;2022-11-20T01:43:00;96.47;;;35.60;;
21237;SDS011;10777;50.828;3.264;2022-11-20T01:46:02;98.73;;;35.13;;
21237;SDS011;10777;50.828;3.264;2022-11-20T01:48:49;89.17;;;33.70;;
21237;SDS011;10777;50.828;3.264;2022-11-20T01:51:40;90.27;;;33.27;;
21237;SDS011;10777;50.828;3.264;2022-11-20T01:54:11;96.67;;;33.50;;
21237;SDS011;10777;50.828;3.264;2022-11-20T01:56:41;91.63;;;32.83;;
21237;SDS011;10777;50.828;3.264;2022-11-20T01:59:10;82.03;;;33.63;;
21237;SDS011;10777;50.828;3.264;2022-11-20T02:01:39;88.77;;;33.87;;
21237;SDS011;10777;50.828;3.264;2022-11-20T02:04:05;90.17;;;33.60;;
21237;SDS011;10777;50.828;3.264;2022-11-20T02:06:39;90.97;;;33.70;;
21237;SDS011;10777;50.828;3.264;2022-11-20T02:09:08;85.40;;;32.43;;
21237;SDS011;10777;50.828;3.264;2022-11-20T02:11:34;88.97;;;33.20;;
21237;SDS011;10777;50.828;3.264;2022-11-20T02:14:00;88.70;;;33.77;;
21237;SDS011;10777;50.828;3.264;2022-11-20T02:16:27;93.40;;;33.87;;
21237;SDS011;10777;50.828;3.264;2022-11-20T02:18:56;97.47;;;33.83;;
21237;SDS011;10777;50.828;3.264;2022-11-20T02:24:14;96.33;;;33.50;;
21237;SDS011;10777;50.828;3.264;2022-11-20T02:26:45;93.07;;;32.60;;
21237;SDS011;10777;50.828;3.264;2022-11-20T02:29:18;93.93;;;33.67;;
21237;SDS011;10777;50.828;3.264;2022-11-20T02:31:49;81.73;;;31.50;;
21237;SDS011;10777;50.828;3.264;2022-11-20T02:34:16;91.10;;;33.73;;
21237;SDS011;10777;50.828;3.264;2022-11-20T02:36:42;94.53;;;34.10;;
21237;SDS011;10777;50.828;3.264;2022-11-20T02:39:08;88.03;;;32.30;;
21237;SDS011;10777;50.828;3.264;2022-11-20T02:41:37;86.67;;;32.23;;
21237;SDS011;10777;50.828;3.264;2022-11-20T02:44:04;95.43;;;33.47;;
21237;SDS011;10777;50.828;3.264;2022-11-20T02:46:30;91.83;;;33.37;;
21237;SDS011;10777;50.828;3.264;2022-11-20T02:48:57;98.77;;;34.50;;
21237;SDS011;10777;50.828;3.264;2022-11-20T02:51:23;95.10;;;33.73;;
21237;SDS011;10777;50.828;3.264;2022-11-20T02:53:49;94.30;;;33.70;;
21237;SDS011;10777;50.828;3.264;2022-11-20T02:56:15;100.10;;;34.97;;
21237;SDS011;10777;50.828;3.264;2022-11-20T02:58:41;90.17;;;33.00;;
21237;SDS011;10777;50.828;3.264;2022-11-20T03:01:06;96.33;;;33.03;;
21237;SDS011;10777;50.828;3.264;2022-11-20T03:03:32;92.50;;;33.93;;
21237;SDS011;10777;50.828;3.264;2022-11-20T03:05:58;87.43;;;32.73;;
21237;SDS011;10777;50.828;3.264;2022-11-20T03:08:24;89.03;;;31.10;;
21237;SDS011;10777;50.828;3.264;2022-11-20T03:10:50;85.13;;;30.40;;
21237;SDS011;10777;50.828;3.264;2022-11-20T03:13:16;84.73;;;31.43;;
21237;SDS011;10777;50.828;3.264;2022-11-20T03:15:42;93.90;;;30.77;;
21237;SDS011;10777;50.828;3.264;2022-11-20T03:18:07;97.63;;;33.83;;
21237;SDS011;10777;50.828;3.264;2022-11-20T03:20:33;99.43;;;31.47;;
21237;SDS011;10777;50.828;3.264;2022-11-20T03:22:59;92.77;;;32.37;;
21237;SDS011;10777;50.828;3.264;2022-11-20T03:25:25;93.00;;;32.83;;
21237;SDS011;10777;50.828;3.264;2022-11-20T03:27:50;94.00;;;31.40;;
21237;SDS011;10777;50.828;3.264;2022-11-20T03:30:17;91.20;;;31.23;;
21237;SDS011;10777;50.828;3.264;2022-11-20T03:32:42;88.27;;;31.03;;
21237;SDS011;10777;50.828;3.264;2022-11-20T03:35:08;83.67;;;29.00;;
21237;SDS011;10777;50.828;3.264;2022-11-20T03:37:34;89.50;;;30.70;;
21237;SDS011;10777;50.828;3.264;2022-11-20T03:40:00;88.60;;;31.40;;
21237;SDS011;10777;50.828;3.264;2022-11-20T03:42:27;91.13;;;30.37;;
21237;SDS011;10777;50.828;3.264;2022-11-20T03:45:13;82.43;;;30.07;;
21237;SDS011;10777;50.828;3.264;2022-11-20T03:47:40;91.50;;;29.80;;
21237;SDS011;10777;50.828;3.264;2022-11-20T03:50:05;80.53;;;28.30;;
21237;SDS011;10777;50.828;3.264;2022-11-20T03:52:31;81.53;;;27.23;;
21237;SDS011;10777;50.828;3.264;2022-11-20T03:54:57;82.77;;;27.33;;
21237;SDS011;10777;50.828;3.264;2022-11-20T03:57:22;76.60;;;26.63;;
21237;SDS011;10777;50.828;3.264;2022-11-20T03:59:48;69.47;;;26.70;;
21237;SDS011;10777;50.828;3.264;2022-11-20T04:02:14;65.67;;;26.17;;
21237;SDS011;10777;50.828;3.264;2022-11-20T04:04:39;72.70;;;26.30;;
21237;SDS011;10777;50.828;3.264;2022-11-20T04:07:05;63.80;;;25.37;;
21237;SDS011;10777;50.828;3.264;2022-11-20T04:09:30;63.07;;;24.87;;
21237;SDS011;10777;50.828;3.264;2022-11-20T04:11:56;60.63;;;23.97;;
21237;SDS011;10777;50.828;3.264;2022-11-20T04:14:22;70.50;;;26.17;;
21237;SDS011;10777;50.828;3.264;2022-11-20T04:16:47;64.87;;;25.67;;
21237;SDS011;10777;50.828;3.264;2022-11-20T04:19:14;65.90;;;24.30;;
21237;SDS011;10777;50.828;3.264;2022-11-20T04:21:41;73.20;;;26.47;;
21237;SDS011;10777;50.828;3.264;2022-11-20T04:24:07;64.43;;;24.37;;
21237;SDS011;10777;50.828;3.264;2022-11-20T04:26:33;69.07;;;24.93;;
21237;SDS011;10777;50.828;3.264;2022-11-20T04:28:59;61.77;;;24.70;;
21237;SDS011;10777;50.828;3.264;2022-11-20T04:31:27;55.00;;;23.37;;
21237;SDS011;10777;50.828;3.264;2022-11-20T04:33:55;54.90;;;24.00;;
21237;SDS011;10777;50.828;3.264;2022-11-20T04:36:25;60.20;;;25.10;;
21237;SDS011;10777;50.828;3.264;2022-11-20T04:38:52;59.17;;;23.80;;
21237;SDS011;10777;50.828;3.264;2022-11-20T04:41:19;65.80;;;23.93;;
21237;SDS011;10777;50.828;3.264;2022-11-20T04:43:46;62.43;;;24.73;;
21237;SDS011;10777;50.828;3.264;2022-11-20T04:46:13;61.50;;;23.50;;
21237;SDS011;10777;50.828;3.264;2022-11-20T04:48:39;65.87;;;24.93;;
21237;SDS011;10777;50.828;3.264;2022-11-20T04:51:05;61.20;;;24.03;;
21237;SDS011;10777;50.828;3.264;2022-11-20T04:53:31;66.50;;;25.03;;
21237;SDS011;10777;50.828;3.264;2022-11-20T04:56:05;69.00;;;25.73;;
21237;SDS011;10777;50.828;3.264;2022-11-20T04:58:32;59.73;;;24.53;;
21237;SDS011;10777;50.828;3.264;2022-11-20T05:01:06;67.90;;;26.10;;
21237;SDS011;10777;50.828;3.264;2022-11-20T05:03:41;61.57;;;25.03;;
21237;SDS011;10777;50.828;3.264;2022-11-20T05:06:08;69.47;;;25.77;;
21237;SDS011;10777;50.828;3.264;2022-11-20T05:08:35;61.80;;;25.00;;
21237;SDS011;10777;50.828;3.264;2022-11-20T05:11:05;64.17;;;25.70;;
21237;SDS011;10777;50.828;3.264;2022-11-20T05:13:32;69.90;;;23.80;;
21237;SDS011;10777;50.828;3.264;2022-11-20T05:16:06;60.63;;;23.87;;
21237;SDS011;10777;50.828;3.264;2022-11-20T05:18:34;59.40;;;23.23;;
21237;SDS011;10777;50.828;3.264;2022-11-20T05:21:00;54.53;;;21.83;;
21237;SDS011;10777;50.828;3.264;2022-11-20T05:23:27;54.97;;;22.73;;
21237;SDS011;10777;50.828;3.264;2022-11-20T05:25:54;54.77;;;22.37;;
21237;SDS011;10777;50.828;3.264;2022-11-20T05:28:21;66.47;;;24.57;;
21237;SDS011;10777;50.828;3.264;2022-11-20T05:30:48;60.40;;;23.77;;
21237;SDS011;10777;50.828;3.264;2022-11-20T05:33:14;59.97;;;22.60;;
21237;SDS011;10777;50.828;3.264;2022-11-20T05:35:40;58.87;;;23.60;;
21237;SDS011;10777;50.828;3.264;2022-11-20T05:38:05;60.03;;;23.97;;
21237;SDS011;10777;50.828;3.264;2022-11-20T05:40:31;64.43;;;23.77;;
21237;SDS011;10777;50.828;3.264;2022-11-20T05:42:57;60.77;;;23.30;;
21237;SDS011;10777;50.828;3.264;2022-11-20T05:45:22;61.03;;;24.57;;
21237;SDS011;10777;50.828;3.264;2022-11-20T05:47:48;62.77;;;24.63;;
21237;SDS011;10777;50.828;3.264;2022-11-20T05:50:14;68.33;;;25.00;;
21237;SDS011;10777;50.828;3.264;2022-11-20T05:52:39;62.17;;;23.33;;
21237;SDS011;10777;50.828;3.264;2022-11-20T05:55:05;62.93;;;24.00;;
21237;SDS011;10777;50.828;3.264;2022-11-20T05:57:31;75.60;;;24.37;;
21237;SDS011;10777;50.828;3.264;2022-11-20T05:59:57;60.20;;;23.33;;
21237;SDS011;10777;50.828;3.264;2022-11-20T06:02:23;70.10;;;25.27;;
21237;SDS011;10777;50.828;3.264;2022-11-20T06:04:49;68.60;;;24.37;;
21237;SDS011;10777;50.828;3.264;2022-11-20T06:07:14;59.93;;;23.20;;
21237;SDS011;10777;50.828;3.264;2022-11-20T06:09:40;58.13;;;23.27;;
21237;SDS011;10777;50.828;3.264;2022-11-20T06:12:05;65.17;;;22.63;;
21237;SDS011;10777;50.828;3.264;2022-11-20T06:14:32;63.03;;;23.13;;
21237;SDS011;10777;50.828;3.264;2022-11-20T06:16:58;63.90;;;24.83;;
21237;SDS011;10777;50.828;3.264;2022-11-20T06:19:23;63.50;;;24.07;;
21237;SDS011;10777;50.828;3.264;2022-11-20T06:21:49;63.50;;;23.83;;
21237;SDS011;10777;50.828;3.264;2022-11-20T06:24:15;68.27;;;24.57;;
21237;SDS011;10777;50.828;3.264;2022-11-20T06:26:41;64.17;;;23.17;;
21237;SDS011;10777;50.828;3.264;2022-11-20T06:29:07;64.47;;;23.50;;
21237;SDS011;10777;50.828;3.264;2022-11-20T06:31:32;67.27;;;24.20;;
21237;SDS011;10777;50.828;3.264;2022-11-20T06:34:00;58.03;;;23.57;;
21237;SDS011;10777;50.828;3.264;2022-11-20T06:36:26;58.07;;;23.93;;
21237;SDS011;10777;50.828;3.264;2022-11-20T06:38:52;64.80;;;22.43;;
21237;SDS011;10777;50.828;3.264;2022-11-20T06:41:19;65.63;;;22.53;;
21237;SDS011;10777;50.828;3.264;2022-11-20T06:43:46;65.07;;;23.10;;
21237;SDS011;10777;50.828;3.264;2022-11-20T06:46:12;65.53;;;23.60;;
21237;SDS011;10777;50.828;3.264;2022-11-20T06:48:39;57.73;;;22.53;;
21237;SDS011;10777;50.828;3.264;2022-11-20T06:51:05;59.90;;;23.40;;
21237;SDS011;10777;50.828;3.264;2022-11-20T06:53:32;61.23;;;23.03;;
21237;SDS011;10777;50.828;3.264;2022-11-20T06:55:58;60.13;;;22.90;;
21237;SDS011;10777;50.828;3.264;2022-11-20T06:58:26;70.77;;;23.37;;
21237;SDS011;10777;50.828;3.264;2022-11-20T07:00:53;59.60;;;23.17;;
21237;SDS011;10777;50.828;3.264;2022-11-20T07:03:22;55.13;;;21.40;;
21237;SDS011;10777;50.828;3.264;2022-11-20T07:05:47;58.83;;;22.87;;
21237;SDS011;10777;50.828;3.264;2022-11-20T07:08:13;60.07;;;22.60;;
21237;SDS011;10777;50.828;3.264;2022-11-20T07:10:39;53.83;;;22.40;;
21237;SDS011;10777;50.828;3.264;2022-11-20T07:13:04;60.70;;;21.87;;
21237;SDS011;10777;50.828;3.264;2022-11-20T07:15:32;57.30;;;21.33;;
21237;SDS011;10777;50.828;3.264;2022-11-20T07:17:59;67.00;;;23.57;;
21237;SDS011;10777;50.828;3.264;2022-11-20T07:20:25;55.23;;;20.90;;
21237;SDS011;10777;50.828;3.264;2022-11-20T07:22:58;56.47;;;21.70;;
21237;SDS011;10777;50.828;3.264;2022-11-20T07:25:24;58.07;;;21.97;;
21237;SDS011;10777;50.828;3.264;2022-11-20T07:27:51;57.17;;;21.43;;
21237;SDS011;10777;50.828;3.264;2022-11-20T07:30:17;52.57;;;20.63;;
21237;SDS011;10777;50.828;3.264;2022-11-20T07:32:46;64.30;;;21.80;;
21237;SDS011;10777;50.828;3.264;2022-11-20T07:35:12;55.03;;;20.53;;
21237;SDS011;10777;50.828;3.264;2022-11-20T07:37:38;54.83;;;21.10;;
21237;SDS011;10777;50.828;3.264;2022-11-20T07:40:04;51.23;;;20.63;;
21237;SDS011;10777;50.828;3.264;2022-11-20T07:42:29;46.63;;;21.07;;
21237;SDS011;10777;50.828;3.264;2022-11-20T07:44:55;51.20;;;20.70;;
21237;SDS011;10777;50.828;3.264;2022-11-20T07:47:20;51.53;;;20.87;;
21237;SDS011;10777;50.828;3.264;2022-11-20T07:49:46;49.23;;;18.83;;
21237;SDS011;10777;50.828;3.264;2022-11-20T07:52:12;48.40;;;19.20;;
21237;SDS011;10777;50.828;3.264;2022-11-20T07:54:37;41.87;;;19.83;;
21237;SDS011;10777;50.828;3.264;2022-11-20T07:57:03;44.23;;;18.23;;
21237;SDS011;10777;50.828;3.264;2022-11-20T07:59:28;43.80;;;19.27;;
21237;SDS011;10777;50.828;3.264;2022-11-20T08:01:54;51.33;;;19.60;;
21237;SDS011;10777;50.828;3.264;2022-11-20T08:04:20;46.90;;;17.40;;
21237;SDS011;10777;50.828;3.264;2022-11-20T08:06:46;76.47;;;32.10;;
21237;SDS011;10777;50.828;3.264;2022-11-20T08:09:12;47.70;;;19.80;;
21237;SDS011;10777;50.828;3.264;2022-11-20T08:11:37;41.30;;;18.03;;
21237;SDS011;10777;50.828;3.264;2022-11-20T08:14:23;46.43;;;19.03;;
21237;SDS011;10777;50.828;3.264;2022-11-20T08:16:49;44.10;;;18.57;;
21237;SDS011;10777;50.828;3.264;2022-11-20T08:19:15;42.43;;;20.10;;
21237;SDS011;10777;50.828;3.264;2022-11-20T08:21:42;41.93;;;18.53;;
21237;SDS011;10777;50.828;3.264;2022-11-20T08:24:08;42.57;;;18.30;;
21237;SDS011;10777;50.828;3.264;2022-11-20T08:26:35;40.33;;;17.53;;
21237;SDS011;10777;50.828;3.264;2022-11-20T08:29:02;39.30;;;16.83;;
21237;SDS011;10777;50.828;3.264;2022-11-20T08:31:28;48.17;;;20.77;;
21237;SDS011;10777;50.828;3.264;2022-11-20T08:33:54;30.70;;;14.53;;
21237;SDS011;10777;50.828;3.264;2022-11-20T08:36:21;33.67;;;16.03;;
21237;SDS011;10777;50.828;3.264;2022-11-20T08:38:48;34.90;;;15.53;;
21237;SDS011;10777;50.828;3.264;2022-11-20T08:41:14;36.43;;;15.87;;
21237;SDS011;10777;50.828;3.264;2022-11-20T08:43:59;33.17;;;15.13;;
21237;SDS011;10777;50.828;3.264;2022-11-20T08:46:28;39.47;;;15.47;;
21237;SDS011;10777;50.828;3.264;2022-11-20T08:48:58;33.10;;;14.60;;
21237;SDS011;10777;50.828;3.264;2022-11-20T08:51:23;30.60;;;13.20;;
21237;SDS011;10777;50.828;3.264;2022-11-20T08:53:49;27.43;;;13.30;;
21237;SDS011;10777;50.828;3.264;2022-11-20T08:56:15;29.67;;;13.03;;
21237;SDS011;10777;50.828;3.264;2022-11-20T08:58:41;29.70;;;13.77;;
21237;SDS011;10777;50.828;3.264;2022-11-20T09:01:07;24.03;;;13.43;;
21237;SDS011;10777;50.828;3.264;2022-11-20T09:03:33;29.13;;;15.13;;
21237;SDS011;10777;50.828;3.264;2022-11-20T09:05:59;25.60;;;12.93;;
21237;SDS011;10777;50.828;3.264;2022-11-20T09:08:25;28.63;;;12.50;;
21237;SDS011;10777;50.828;3.264;2022-11-20T09:10:52;25.57;;;11.27;;
21237;SDS011;10777;50.828;3.264;2022-11-20T09:13:19;23.70;;;11.63;;
21237;SDS011;10777;50.828;3.264;2022-11-20T09:15:45;25.03;;;11.20;;
21237;SDS011;10777;50.828;3.264;2022-11-20T09:18:11;22.00;;;11.37;;
21237;SDS011;10777;50.828;3.264;2022-11-20T09:20:38;21.07;;;10.90;;
21237;SDS011;10777;50.828;3.264;2022-11-20T09:23:03;22.70;;;10.97;;
21237;SDS011;10777;50.828;3.264;2022-11-20T09:25:29;22.23;;;10.53;;
21237;SDS011;10777;50.828;3.264;2022-11-20T09:27:55;18.67;;;10.33;;
21237;SDS011;10777;50.828;3.264;2022-11-20T09:30:23;21.67;;;9.50;;
21237;SDS011;10777;50.828;3.264;2022-11-20T09:32:49;22.83;;;9.97;;
21237;SDS011;10777;50.828;3.264;2022-11-20T09:35:15;19.20;;;9.00;;
21237;SDS011;10777;50.828;3.264;2022-11-20T09:37:40;16.17;;;8.57;;
21237;SDS011;10777;50.828;3.264;2022-11-20T09:40:06;17.13;;;8.80;;
21237;SDS011;10777;50.828;3.264;2022-11-20T09:42:41;13.67;;;6.83;;
21237;SDS011;10777;50.828;3.264;2022-11-20T09:48:14;14.33;;;6.63;;
21237;SDS011;10777;50.828;3.264;2022-11-20T09:50:57;10.97;;;5.37;;
21237;SDS011;10777;50.828;3.264;2022-11-20T09:56:29;8.17;;;4.40;;
21237;SDS011;10777;50.828;3.264;2022-11-20T09:58:57;14.70;;;4.80;;
21237;SDS011;10777;50.828;3.264;2022-11-20T10:01:31;8.57;;;3.70;;
21237;SDS011;10777;50.828;3.264;2022-11-20T10:04:16;8.67;;;3.93;;
21237;SDS011;10777;50.828;3.264;2022-11-20T10:06:46;9.57;;;4.30;;
21237;SDS011;10777;50.828;3.264;2022-11-20T10:09:34;10.13;;;3.40;;
21237;SDS011;10777;50.828;3.264;2022-11-20T10:12:12;10.67;;;4.30;;
21237;SDS011;10777;50.828;3.264;2022-11-20T10:14:49;8.33;;;3.63;;
21237;SDS011;10777;50.828;3.264;2022-11-20T10:17:29;6.53;;;3.23;;
21237;SDS011;10777;50.828;3.264;2022-11-20T10:20:23;9.37;;;4.33;;
21237;SDS011;10777;50.828;3.264;2022-11-20T10:26:01;10.40;;;4.43;;
21237;SDS011;10777;50.828;3.264;2022-11-20T10:31:39;101.23;;;42.53;;
21237;SDS011;10777;50.828;3.264;2022-11-20T10:34:11;13.67;;;5.20;;
21237;SDS011;10777;50.828;3.264;2022-11-20T10:36:44;7.13;;;3.77;;
21237;SDS011;10777;50.828;3.264;2022-11-20T10:39:18;10.97;;;2.90;;
21237;SDS011;10777;50.828;3.264;2022-11-20T10:41:52;7.33;;;3.07;;
21237;SDS011;10777;50.828;3.264;2022-11-20T10:44:20;9.77;;;3.50;;
21237;SDS011;10777;50.828;3.264;2022-11-20T10:47:11;5.33;;;3.17;;
21237;SDS011;10777;50.828;3.264;2022-11-20T10:49:39;10.83;;;4.40;;
21237;SDS011;10777;50.828;3.264;2022-11-20T10:58:14;10.37;;;3.70;;
21237;SDS011;10777;50.828;3.264;2022-11-20T11:00:47;10.17;;;4.23;;
21237;SDS011;10777;50.828;3.264;2022-11-20T11:03:22;13.03;;;3.73;;
21237;SDS011;10777;50.828;3.264;2022-11-20T11:06:02;11.70;;;4.77;;
21237;SDS011;10777;50.828;3.264;2022-11-20T11:08:49;15.67;;;3.60;;
21237;SDS011;10777;50.828;3.264;2022-11-20T11:11:20;9.50;;;3.97;;
21237;SDS011;10777;50.828;3.264;2022-11-20T11:13:48;9.47;;;3.70;;
21237;SDS011;10777;50.828;3.264;2022-11-20T11:16:22;14.27;;;4.30;;
21237;SDS011;10777;50.828;3.264;2022-11-20T11:18:49;7.93;;;3.77;;
21237;SDS011;10777;50.828;3.264;2022-11-20T11:21:24;8.60;;;4.20;;
21237;SDS011;10777;50.828;3.264;2022-11-20T11:24:14;16.57;;;4.87;;
21237;SDS011;10777;50.828;3.264;2022-11-20T11:26:50;10.17;;;4.20;;
21237;SDS011;10777;50.828;3.264;2022-11-20T11:29:36;10.80;;;4.50;;
21237;SDS011;10777;50.828;3.264;2022-11-20T11:32:06;13.50;;;3.97;;
21237;SDS011;10777;50.828;3.264;2022-11-20T11:34:36;10.10;;;4.13;;
21237;SDS011;10777;50.828;3.264;2022-11-20T11:37:02;8.07;;;3.93;;
21237;SDS011;10777;50.828;3.264;2022-11-20T11:39:29;14.27;;;6.87;;
21237;SDS011;10777;50.828;3.264;2022-11-20T11:41:57;9.60;;;4.07;;
21237;SDS011;10777;50.828;3.264;2022-11-20T11:44:27;9.27;;;3.97;;
21237;SDS011;10777;50.828;3.264;2022-11-20T11:47:21;9.57;;;4.67;;
21237;SDS011;10777;50.828;3.264;2022-11-20T11:55:35;12.30;;;4.83;;
21237;SDS011;10777;50.828;3.264;2022-11-20T11:58:19;8.80;;;4.93;;
21237;SDS011;10777;50.828;3.264;2022-11-20T12:00:57;6.63;;;4.00;;
21237;SDS011;10777;50.828;3.264;2022-11-20T12:03:34;11.83;;;3.83;;
21237;SDS011;10777;50.828;3.264;2022-11-20T12:06:06;6.23;;;3.43;;
21237;SDS011;10777;50.828;3.264;2022-11-20T12:08:41;11.27;;;3.83;;
21237;SDS011;10777;50.828;3.264;2022-11-20T12:11:25;6.17;;;3.33;;
21237;SDS011;10777;50.828;3.264;2022-11-20T12:14:01;10.23;;;3.93;;
21237;SDS011;10777;50.828;3.264;2022-11-20T12:16:36;7.43;;;3.83;;
21237;SDS011;10777;50.828;3.264;2022-11-20T12:19:04;5.00;;;3.97;;
21237;SDS011;10777;50.828;3.264;2022-11-20T12:21:42;5.77;;;3.00;;
21237;SDS011;10777;50.828;3.264;2022-11-20T12:30:14;7.50;;;2.70;;
21237;SDS011;10777;50.828;3.264;2022-11-20T12:32:50;5.10;;;2.80;;
21237;SDS011;10777;50.828;3.264;2022-11-20T12:35:37;3.60;;;2.60;;
21237;SDS011;10777;50.828;3.264;2022-11-20T12:41:40;4.10;;;2.83;;
21237;SDS011;10777;50.828;3.264;2022-11-20T12:47:59;11.63;;;2.70;;
21237;SDS011;10777;50.828;3.264;2022-11-20T12:50:51;5.30;;;3.00;;
21237;SDS011;10777;50.828;3.264;2022-11-20T12:53:43;11.13;;;5.70;;
21237;SDS011;10777;50.828;3.264;2022-11-20T13:02:27;5.97;;;2.80;;
21237;SDS011;10777;50.828;3.264;2022-11-20T13:05:17;5.93;;;4.27;;
21237;SDS011;10777;50.828;3.264;2022-11-20T13:07:50;3.33;;;2.53;;
21237;SDS011;10777;50.828;3.264;2022-11-20T13:10:20;3.13;;;2.70;;
21237;SDS011;10777;50.828;3.264;2022-11-20T13:13:04;5.53;;;2.97;;
21237;SDS011;10777;50.828;3.264;2022-11-20T13:15:50;3.97;;;2.80;;
21237;SDS011;10777;50.828;3.264;2022-11-20T13:18:25;4.87;;;3.20;;
21237;SDS011;10777;50.828;3.264;2022-11-20T13:20:51;3.00;;;2.60;;
21237;SDS011;10777;50.828;3.264;2022-11-20T13:23:25;4.30;;;2.73;;
21237;SDS011;10777;50.828;3.264;2022-11-20T13:26:02;5.00;;;2.80;;
21237;SDS011;10777;50.828;3.264;2022-11-20T13:28:30;4.93;;;3.00;;
21237;SDS011;10777;50.828;3.264;2022-11-20T13:30:56;5.57;;;3.10;;
21237;SDS011;10777;50.828;3.264;2022-11-20T13:33:25;10.00;;;4.53;;
21237;SDS011;10777;50.828;3.264;2022-11-20T13:35:57;6.40;;;3.00;;
21237;SDS011;10777;50.828;3.264;2022-11-20T13:38:25;5.37;;;3.50;;
21237;SDS011;10777;50.828;3.264;2022-11-20T13:40:53;6.13;;;2.90;;
21237;SDS011;10777;50.828;3.264;2022-11-20T13:43:32;7.37;;;2.97;;
21237;SDS011;10777;50.828;3.264;2022-11-20T13:46:02;4.27;;;2.47;;
21237;SDS011;10777;50.828;3.264;2022-11-20T13:48:34;3.70;;;2.40;;
21237;SDS011;10777;50.828;3.264;2022-11-20T14:00:12;5.77;;;2.50;;
21237;SDS011;10777;50.828;3.264;2022-11-20T14:02:41;5.77;;;3.20;;
21237;SDS011;10777;50.828;3.264;2022-11-20T14:05:18;6.43;;;2.33;;
21237;SDS011;10777;50.828;3.264;2022-11-20T14:07:47;10.00;;;2.77;;
21237;SDS011;10777;50.828;3.264;2022-11-20T14:10:27;7.77;;;2.40;;
21237;SDS011;10777;50.828;3.264;2022-11-20T14:12:54;10.00;;;2.27;;
21237;SDS011;10777;50.828;3.264;2022-11-20T14:15:28;12.47;;;2.63;;
21237;SDS011;10777;50.828;3.264;2022-11-20T14:17:57;10.97;;;2.60;;
21237;SDS011;10777;50.828;3.264;2022-11-20T14:20:24;8.80;;;2.63;;
21237;SDS011;10777;50.828;3.264;2022-11-20T14:22:52;14.40;;;2.43;;
21237;SDS011;10777;50.828;3.264;2022-11-20T14:25:20;14.17;;;2.53;;
21237;SDS011;10777;50.828;3.264;2022-11-20T14:27:50;12.03;;;2.73;;
21237;SDS011;10777;50.828;3.264;2022-11-20T14:30:21;19.60;;;3.70;;
21237;SDS011;10777;50.828;3.264;2022-11-20T14:32:49;15.43;;;2.80;;
21237;SDS011;10777;50.828;3.264;2022-11-20T14:35:19;11.17;;;2.93;;
21237;SDS011;10777;50.828;3.264;2022-11-20T14:38:08;12.27;;;2.83;;
21237;SDS011;10777;50.828;3.264;2022-11-20T14:40:37;17.43;;;4.00;;
21237;SDS011;10777;50.828;3.264;2022-11-20T14:45:55;15.30;;;2.97;;
21237;SDS011;10777;50.828;3.264;2022-11-20T14:48:29;11.97;;;2.80;;
21237;SDS011;10777;50.828;3.264;2022-11-20T14:50:58;16.40;;;2.60;;
21237;SDS011;10777;50.828;3.264;2022-11-20T14:53:24;20.43;;;2.97;;
21237;SDS011;10777;50.828;3.264;2022-11-20T14:55:58;15.80;;;3.00;;
21237;SDS011;10777;50.828;3.264;2022-11-20T14:58:27;14.77;;;3.47;;
21237;SDS011;10777;50.828;3.264;2022-11-20T15:00:56;15.90;;;3.57;;
21237;SDS011;10777;50.828;3.264;2022-11-20T15:03:23;16.50;;;3.03;;
21237;SDS011;10777;50.828;3.264;2022-11-20T15:05:55;16.10;;;3.20;;
21237;SDS011;10777;50.828;3.264;2022-11-20T15:08:21;22.30;;;3.07;;
21237;SDS011;10777;50.828;3.264;2022-11-20T15:10:50;11.80;;;3.13;;
21237;SDS011;10777;50.828;3.264;2022-11-20T15:13:20;16.73;;;3.40;;
21237;SDS011;10777;50.828;3.264;2022-11-20T15:15:58;15.80;;;3.40;;
21237;SDS011;10777;50.828;3.264;2022-11-20T15:18:28;18.83;;;3.50;;
21237;SDS011;10777;50.828;3.264;2022-11-20T15:20:56;25.50;;;4.50;;
21237;SDS011;10777;50.828;3.264;2022-11-20T15:23:25;20.87;;;4.03;;
21237;SDS011;10777;50.828;3.264;2022-11-20T15:25:52;13.90;;;3.50;;
21237;SDS011;10777;50.828;3.264;2022-11-20T15:28:19;20.47;;;4.07;;
21237;SDS011;10777;50.828;3.264;2022-11-20T15:30:53;18.33;;;3.80;;
21237;SDS011;10777;50.828;3.264;2022-11-20T15:33:20;12.60;;;3.40;;
21237;SDS011;10777;50.828;3.264;2022-11-20T15:35:46;18.30;;;4.30;;
21237;SDS011;10777;50.828;3.264;2022-11-20T15:38:11;20.77;;;3.93;;
21237;SDS011;10777;50.828;3.264;2022-11-20T15:40:37;13.37;;;3.20;;